createdAt,value
2022-09-26T00:02:20.257Z,100619.91
2022-09-26T00:05:16.967Z,100610.38
2022-09-26T00:08:13.815Z,100601.56
2022-09-26T00:11:12.055Z,100614.50
2022-09-26T00:14:12.902Z,100606.81
2022-09-26T00:17:10.293Z,100600.19
2022-09-26T00:20:08.617Z,100599.81
2022-09-26T00:23:05.838Z,100590.81
2022-09-26T00:26:03.356Z,100588.41
2022-09-26T00:29:07.377Z,100587.59
2022-09-26T00:32:06.439Z,100585.06
2022-09-26T00:35:03.894Z,100583.50
2022-09-26T00:38:01.162Z,100575.38
2022-09-26T00:40:58.019Z,100576.34
2022-09-26T00:43:56.265Z,100573.66
2022-09-26T00:46:54.230Z,100575.19
2022-09-26T00:49:52.942Z,100568.75
2022-09-26T00:52:57.061Z,100568.34
2022-09-26T00:56:00.233Z,100549.16
2022-09-26T00:59:02.081Z,100553.16
2022-09-26T01:01:59.241Z,100544.25
2022-09-26T01:04:56.879Z,100548.34
2022-09-26T01:07:54.223Z,100538.53
2022-09-26T01:10:51.196Z,100538.47
2022-09-26T01:13:48.121Z,100530.75
2022-09-26T01:16:46.188Z,100522.88
2022-09-26T01:20:10.328Z,100525.22
2022-09-26T01:23:47.522Z,100513.09
2022-09-26T01:26:53.714Z,100508.19
2022-09-26T01:30:09.787Z,100508.16
2022-09-26T01:33:36.744Z,100489.06
2022-09-26T01:36:53.122Z,100487.91
2022-09-26T01:40:17.359Z,100479.84
2022-09-26T01:43:30.185Z,100483.06
2022-09-26T01:46:36.796Z,100470.53
2022-09-26T01:49:45.080Z,100466.38
2022-09-26T01:52:49.114Z,100455.31
2022-09-26T01:55:48.574Z,100462.88
2022-09-26T01:58:50.011Z,100451.00
2022-09-26T02:01:47.138Z,100445.31
2022-09-26T02:04:44.082Z,100439.44
2022-09-26T02:07:43.805Z,100432.03
2022-09-26T02:10:46.454Z,100424.81
2022-09-26T02:13:46.479Z,100426.25
2022-09-26T02:16:47.685Z,100420.66
2022-09-26T02:20:19.361Z,100421.31
2022-09-26T02:23:16.450Z,100409.25
2022-09-26T02:26:13.773Z,100404.34
2022-09-26T02:29:14.480Z,100401.69
2022-09-26T02:32:16.598Z,100394.47
2022-09-26T02:35:32.707Z,100377.13
2022-09-26T02:38:30.968Z,100371.78
2022-09-26T02:42:17.410Z,100369.75
2022-09-26T02:45:23.594Z,100360.56
2022-09-26T02:48:29.673Z,100355.31
2022-09-26T02:51:36.911Z,100356.84
2022-09-26T02:54:54.787Z,100356.41
2022-09-26T02:58:11.541Z,100343.97
2022-09-26T03:01:27.059Z,100347.34
2022-09-26T03:04:41.901Z,100345.63
2022-09-26T03:07:47.330Z,100340.75
2022-09-26T03:10:45.146Z,100330.78
2022-09-26T03:13:41.986Z,100309.34
2022-09-26T03:16:41.081Z,100315.19
2022-09-26T03:19:53.745Z,100310.41
2022-09-26T03:22:51.127Z,100312.81
2022-09-26T03:25:48.530Z,100306.91
2022-09-26T03:28:47.430Z,100306.56
2022-09-26T03:31:45.259Z,100304.25
2022-09-26T03:34:42.598Z,100309.28
2022-09-26T03:37:40.278Z,100303.25
2022-09-26T03:40:37.403Z,100298.69
2022-09-26T03:44:00.186Z,100295.22
2022-09-26T03:47:06.922Z,100288.56
2022-09-26T03:50:12.026Z,100280.78
2022-09-26T03:53:08.826Z,100278.34
2022-09-26T03:56:07.663Z,100269.13
2022-09-26T03:59:05.153Z,100249.00
2022-09-26T04:02:03.789Z,100227.88
2022-09-26T04:05:00.766Z,100225.78
2022-09-26T04:07:59.072Z,100228.91
2022-09-26T04:11:07.937Z,100229.94
2022-09-26T04:14:05.078Z,100218.50
2022-09-26T04:17:04.166Z,100223.81
2022-09-26T04:20:05.445Z,100210.88
2022-09-26T04:23:04.240Z,100215.66
2022-09-26T04:26:09.249Z,100197.84
2022-09-26T04:29:06.283Z,100202.75
2022-09-26T04:32:22.545Z,100195.75
2022-09-26T04:35:43.279Z,100189.50
2022-09-26T04:38:41.202Z,100195.31
2022-09-26T04:41:40.945Z,100186.94
2022-09-26T04:44:38.275Z,100166.38
2022-09-26T04:47:36.207Z,100158.72
2022-09-26T04:50:52.427Z,100162.38
2022-09-26T04:53:50.465Z,100160.44
2022-09-26T04:56:55.596Z,100157.88
2022-09-26T04:59:53.277Z,100154.78
2022-09-26T05:02:50.441Z,100152.94
2022-09-26T05:05:50.102Z,100139.72
2022-09-26T05:08:48.528Z,100134.78
2022-09-26T05:11:50.234Z,100124.50
2022-09-26T05:14:48.214Z,100122.63
2022-09-26T05:17:45.519Z,100128.38
2022-09-26T05:20:46.446Z,100119.94
2022-09-26T05:24:02.208Z,100112.84
2022-09-26T05:26:59.462Z,100115.19
2022-09-26T05:29:56.948Z,100121.81
2022-09-26T05:32:55.190Z,100120.69
2022-09-26T05:35:54.810Z,100111.75
2022-09-26T05:38:52.627Z,100113.16
2022-09-26T05:41:51.099Z,100099.16
2022-09-26T05:44:48.242Z,100093.50
2022-09-26T05:47:45.149Z,100098.09
2022-09-26T05:50:43.853Z,100103.06
2022-09-26T05:53:45.449Z,100093.72
2022-09-26T05:56:44.246Z,100093.59
2022-09-26T05:59:44.260Z,100094.19
2022-09-26T06:03:01.290Z,100085.69
2022-09-26T06:06:21.656Z,100081.59
2022-09-26T06:09:25.102Z,100077.16
2022-09-26T06:12:41.345Z,100076.63
2022-09-26T06:15:40.029Z,100077.56
2022-09-26T06:18:37.619Z,100072.03
2022-09-26T06:21:35.169Z,100069.06
2022-09-26T06:24:39.145Z,100061.03
2022-09-26T06:27:39.934Z,100060.78
2022-09-26T06:30:38.610Z,100060.56
2022-09-26T06:33:50.296Z,100048.47
2022-09-26T06:37:01.266Z,100046.06
2022-09-26T06:40:00.859Z,100049.84
2022-09-26T06:42:58.212Z,100041.38
2022-09-26T06:45:57.426Z,100032.41
2022-09-26T06:49:06.817Z,100032.38
2022-09-26T06:52:34.850Z,100020.34
2022-09-26T06:55:32.275Z,100002.78
2022-09-26T06:58:29.865Z,100015.16
2022-09-26T07:01:31.395Z,99992.03
2022-09-26T07:04:51.065Z,99988.34
2022-09-26T07:07:58.544Z,99980.06
2022-09-26T07:11:27.587Z,99978.94
2022-09-26T07:14:18.416Z,99973.19
2022-09-26T07:17:22.797Z,99964.94
2022-09-26T07:20:47.847Z,99950.06
2022-09-26T07:23:59.408Z,99961.28
2022-09-26T07:26:57.365Z,99963.91
2022-09-26T07:29:56.407Z,99958.66
2022-09-26T07:33:01.114Z,99963.06
2022-09-26T07:36:05.836Z,99949.75
2022-09-26T07:39:03.425Z,99952.69
2022-09-26T07:42:01.844Z,99951.41
2022-09-26T07:48:35.607Z,99948.41
2022-09-26T07:51:56.813Z,99939.91
2022-09-26T07:55:00.502Z,99943.84
2022-09-26T07:58:18.515Z,99943.34
2022-09-26T08:01:23.409Z,99933.97
2022-09-26T08:04:29.672Z,99931.88
2022-09-26T08:07:27.170Z,99933.09
2022-09-26T08:10:33.720Z,99930.41
2022-09-26T08:13:51.313Z,99923.63
2022-09-26T08:17:15.429Z,99914.78
2022-09-26T08:20:12.797Z,99915.41
2022-09-26T08:23:11.665Z,99916.72
2022-09-26T08:26:09.473Z,99922.91
2022-09-26T08:29:14.021Z,99912.53
2022-09-26T08:32:12.774Z,99919.69
2022-09-26T08:35:14.863Z,99917.75
2022-09-26T08:38:38.899Z,99907.09
2022-09-26T08:42:14.249Z,99912.13
2022-09-26T08:46:09.187Z,99909.84
2022-09-26T08:50:05.409Z,99904.59
2022-09-26T08:53:06.591Z,99904.16
2022-09-26T08:56:17.410Z,99902.81
2022-09-26T08:59:20.342Z,99887.25
2022-09-26T09:02:46.523Z,99886.38
2022-09-26T09:05:48.631Z,99898.22
2022-09-26T09:08:52.830Z,99876.31
2022-09-26T09:12:10.278Z,99884.69
2022-09-26T09:15:26.441Z,99882.63
2022-09-26T09:18:45.551Z,99883.50
2022-09-26T09:22:04.572Z,99869.06
2022-09-26T09:25:29.260Z,99871.00
2022-09-26T09:29:12.623Z,99875.41
2022-09-26T09:32:16.638Z,99876.44
2022-09-26T09:35:31.714Z,99852.13
2022-09-26T09:38:43.506Z,99854.69
2022-09-26T09:41:51.516Z,99850.25
2022-09-26T09:44:58.217Z,99853.47
2022-09-26T09:47:55.598Z,99841.88
2022-09-26T09:51:07.800Z,99847.41
2022-09-26T09:54:26.372Z,99846.28
2022-09-26T09:57:36.678Z,99826.97
2022-09-26T10:00:34.813Z,99820.72
2022-09-26T10:04:04.656Z,99817.47
2022-09-26T10:07:05.468Z,99814.72
2022-09-26T10:10:08.165Z,99797.19
2022-09-26T10:13:25.901Z,99791.44
2022-09-26T10:17:09.102Z,99786.72
2022-09-26T10:20:37.892Z,99792.41
2022-09-26T10:23:37.087Z,99774.66
2022-09-26T10:26:39.617Z,99766.59
2022-09-26T10:29:39.418Z,99760.31
2022-09-26T10:32:45.708Z,99763.34
2022-09-26T10:36:11.214Z,99756.53
2022-09-26T10:39:36.065Z,99751.25
2022-09-26T10:42:35.239Z,99743.94
2022-09-26T10:45:33.176Z,99736.09
2022-09-26T10:49:02.675Z,99743.22
2022-09-26T10:52:47.046Z,99725.38
2022-09-26T10:55:47.075Z,99723.72
2022-09-26T10:58:45.566Z,99741.59
2022-09-26T11:01:49.302Z,99742.44
2022-09-26T11:05:06.166Z,99732.66
2022-09-26T11:08:27.298Z,99734.06
2022-09-26T11:11:53.451Z,99725.56
2022-09-26T11:14:57.055Z,99723.03
2022-09-26T11:17:55.386Z,99729.47
2022-09-26T11:20:53.034Z,99718.03
2022-09-26T11:24:12.322Z,99723.28
2022-09-26T11:30:54.451Z,99708.16
2022-09-26T11:37:36.535Z,99699.31
2022-09-26T11:40:53.098Z,99702.00
2022-09-26T11:44:55.086Z,99691.44
2022-09-26T11:48:31.770Z,99681.25
2022-09-26T11:52:20.877Z,99687.69
2022-09-26T11:55:49.757Z,99685.47
2022-09-26T11:58:50.638Z,99674.84
2022-09-26T12:01:55.874Z,99675.66
2022-09-26T12:05:15.080Z,99671.66
2022-09-26T12:08:19.261Z,99659.06
2022-09-26T12:11:43.107Z,99655.34
2022-09-26T12:14:55.794Z,99652.84
2022-09-26T12:18:15.903Z,99637.50
2022-09-26T12:21:31.505Z,99639.28
2022-09-26T12:24:36.854Z,99638.13
2022-09-26T12:28:08.530Z,99630.09
2022-09-26T12:31:37.322Z,99616.28
2022-09-26T12:34:46.438Z,99611.78
2022-09-26T12:38:02.124Z,99621.03
2022-09-26T12:41:17.827Z,99614.69
2022-09-26T12:44:22.910Z,99612.22
2022-09-26T12:47:39.921Z,99613.22
2022-09-26T12:50:52.209Z,99597.16
2022-09-26T12:53:58.495Z,99597.53
2022-09-26T12:57:16.214Z,99603.16
2022-09-26T13:00:23.407Z,99584.19
2022-09-26T13:03:49.895Z,99587.09
2022-09-26T13:07:17.259Z,99585.06
2022-09-26T13:10:13.520Z,99572.97
2022-09-26T13:13:25.761Z,99565.88
2022-09-26T13:16:44.789Z,99563.16
2022-09-26T13:19:41.502Z,99560.44
2022-09-26T13:22:55.912Z,99550.38
2022-09-26T13:25:54.479Z,99545.44
2022-09-26T13:29:23.347Z,99551.91
2022-09-26T13:32:38.770Z,99545.09
2022-09-26T13:35:35.899Z,99537.53
2022-09-26T13:38:45.230Z,99529.94
2022-09-26T13:41:55.539Z,99521.44
2022-09-26T13:45:16.399Z,99514.81
2022-09-26T13:48:16.716Z,99521.25
2022-09-26T13:51:24.239Z,99515.25
2022-09-26T13:54:27.197Z,99501.84
2022-09-26T13:57:36.761Z,99512.38
2022-09-26T14:00:40.960Z,99501.50
2022-09-26T14:03:39.086Z,99510.78
2022-09-26T14:06:36.437Z,99509.53
2022-09-26T14:09:46.486Z,99502.31
2022-09-26T14:13:06.761Z,99505.06
2022-09-26T14:16:04.966Z,99490.19
2022-09-26T14:19:14.317Z,99486.94
2022-09-26T14:22:21.388Z,99482.00
2022-09-26T14:25:46.678Z,99478.78
2022-09-26T14:28:51.547Z,99477.25
2022-09-26T14:32:01.770Z,99474.47
2022-09-26T14:34:59.914Z,99462.84
2022-09-26T14:38:04.247Z,99457.97
2022-09-26T14:41:01.994Z,99453.81
2022-09-26T14:44:03.061Z,99457.50
2022-09-26T14:47:00.827Z,99450.94
2022-09-26T14:50:03.335Z,99446.19
2022-09-26T14:53:19.406Z,99439.34
2022-09-26T14:56:17.414Z,99435.66
2022-09-26T14:59:17.365Z,99427.22
2022-09-26T15:02:14.550Z,99434.00
2022-09-26T15:05:22.210Z,99427.13
2022-09-26T15:08:30.324Z,99411.31
2022-09-26T15:11:34.685Z,99417.75
2022-09-26T15:14:32.180Z,99420.56
2022-09-26T15:17:32.054Z,99413.78
2022-09-26T15:20:29.922Z,99415.38
2022-09-26T15:23:28.106Z,99404.09
2022-09-26T15:26:36.574Z,99405.38
2022-09-26T15:29:35.222Z,99390.38
2022-09-26T15:32:33.208Z,99400.13
2022-09-26T15:35:31.107Z,99393.22
2022-09-26T15:38:29.323Z,99383.44
2022-09-26T15:41:45.476Z,99385.16
2022-09-26T15:44:48.740Z,99368.91
2022-09-26T15:47:46.026Z,99367.28
2022-09-26T15:50:48.295Z,99361.19
2022-09-26T15:53:50.919Z,99366.06
2022-09-26T15:56:48.005Z,99355.97
2022-09-26T15:59:45.946Z,99354.41
2022-09-26T16:02:42.679Z,99355.59
2022-09-26T16:05:40.120Z,99344.25
2022-09-26T16:08:39.187Z,99333.72
2022-09-26T16:11:50.817Z,99334.97
2022-09-26T16:14:52.020Z,99335.78
2022-09-26T16:17:50.961Z,99328.06
2022-09-26T16:20:47.709Z,99330.09
2022-09-26T16:23:50.324Z,99327.22
2022-09-26T16:26:47.513Z,99313.50
2022-09-26T16:29:50.175Z,99313.97
2022-09-26T16:32:47.676Z,99314.38
2022-09-26T16:35:46.607Z,99315.94
2022-09-26T16:38:44.043Z,99303.84
2022-09-26T16:42:02.454Z,99299.75
2022-09-26T16:45:02.579Z,99302.19
2022-09-26T16:47:59.854Z,99298.56
2022-09-26T16:51:13.621Z,99289.28
2022-09-26T16:54:17.863Z,99296.53
2022-09-26T16:57:21.882Z,99291.72
2022-09-26T17:00:51.327Z,99286.47
2022-09-26T17:03:49.459Z,99287.25
2022-09-26T17:06:47.306Z,99282.00
2022-09-26T17:09:44.947Z,99280.41
2022-09-26T17:12:41.985Z,99282.81
2022-09-26T17:15:39.532Z,99279.19
2022-09-26T17:18:36.667Z,99274.75
2022-09-26T17:21:33.850Z,99271.91
2022-09-26T17:24:30.830Z,99278.34
2022-09-26T17:27:30.629Z,99267.88
2022-09-26T17:30:27.674Z,99271.91
2022-09-26T17:33:27.308Z,99272.31
2022-09-26T17:36:28.101Z,99258.56
2022-09-26T17:39:26.165Z,99269.06
2022-09-26T17:42:23.842Z,99258.91
2022-09-26T17:45:36.575Z,99254.50
2022-09-26T17:48:33.680Z,99252.88
2022-09-26T17:51:31.344Z,99251.25
2022-09-26T17:54:31.555Z,99252.06
2022-09-26T17:57:30.332Z,99247.22
2022-09-26T18:00:31.873Z,99250.50
2022-09-26T18:03:29.546Z,99251.31
2022-09-26T18:06:27.894Z,99244.84
2022-09-26T18:09:24.305Z,99245.63
2022-09-26T18:12:22.579Z,99244.03
2022-09-26T18:15:21.291Z,99242.00
2022-09-26T18:18:20.036Z,99237.94
2022-09-26T18:21:18.847Z,99239.53
2022-09-26T18:24:19.873Z,99228.59
2022-09-26T18:27:18.344Z,99228.25
2022-09-26T18:30:16.693Z,99233.47
2022-09-26T18:33:13.925Z,99219.75
2022-09-26T18:36:11.540Z,99214.81
2022-09-26T18:39:10.441Z,99226.19
2022-09-26T18:42:10.925Z,99215.63
2022-09-26T18:45:08.885Z,99218.91
2022-09-26T18:48:07.710Z,99215.66
2022-09-26T18:51:05.042Z,99217.66
2022-09-26T18:54:07.178Z,99216.75
2022-09-26T18:57:25.308Z,99203.09
2022-09-26T19:00:23.156Z,99205.19
2022-09-26T19:03:22.244Z,99198.69
2022-09-26T19:06:23.219Z,99203.53
2022-09-26T19:09:20.943Z,99201.97
2022-09-26T19:12:18.360Z,99200.69
2022-09-26T19:15:16.429Z,99197.78
2022-09-26T19:18:14.857Z,99194.47
2022-09-26T19:21:35.763Z,99189.63
2022-09-26T19:25:05.377Z,99190.94
2022-09-26T19:28:03.068Z,99200.59
2022-09-26T19:31:00.699Z,99193.72
2022-09-26T19:33:58.066Z,99181.66
2022-09-26T19:36:55.814Z,99178.88
2022-09-26T19:39:52.832Z,99174.47
2022-09-26T19:42:50.075Z,99174.47
2022-09-26T19:45:51.416Z,99171.56
2022-09-26T19:48:48.758Z,99178.81
2022-09-26T19:51:46.072Z,99168.59
2022-09-26T19:54:44.663Z,99170.16
2022-09-26T19:57:41.621Z,99167.63
2022-09-26T20:00:43.512Z,99165.28
2022-09-26T20:03:41.917Z,99160.34
2022-09-26T20:06:39.606Z,99158.34
2022-09-26T20:09:38.559Z,99162.72
2022-09-26T20:12:35.881Z,99163.50
2022-09-26T20:15:32.957Z,99162.56
2022-09-26T20:18:29.877Z,99162.59
2022-09-26T20:21:28.465Z,99150.31
2022-09-26T20:24:26.946Z,99152.34
2022-09-26T20:27:25.077Z,99141.91
2022-09-26T20:30:40.645Z,99145.09
2022-09-26T20:33:37.882Z,99150.72
2022-09-26T20:36:36.120Z,99143.03
2022-09-26T20:39:33.276Z,99144.28
2022-09-26T20:42:37.167Z,99144.59
2022-09-26T20:45:40.189Z,99130.91
2022-09-26T20:48:37.412Z,99145.88
2022-09-26T20:51:35.635Z,99133.34
2022-09-26T20:54:33.055Z,99126.81
2022-09-26T20:57:30.274Z,99128.41
2022-09-26T21:00:27.880Z,99130.94
2022-09-26T21:03:26.993Z,99139.03
2022-09-26T21:06:32.076Z,99128.03
2022-09-26T21:09:28.925Z,99129.31
2022-09-26T21:12:25.820Z,99129.28
2022-09-26T21:15:23.288Z,99134.06
2022-09-26T21:18:25.662Z,99121.84
2022-09-26T21:21:24.088Z,99113.31
2022-09-26T21:24:32.194Z,99113.75
2022-09-26T21:27:28.971Z,99118.22
2022-09-26T21:30:26.053Z,99113.38
2022-09-26T21:33:23.270Z,99112.97
2022-09-26T21:36:21.390Z,99119.91
2022-09-26T21:39:19.245Z,99116.13
2022-09-26T21:42:17.434Z,99116.19
2022-09-26T21:45:15.569Z,99112.94
2022-09-26T21:48:13.285Z,99105.72
2022-09-26T21:51:10.364Z,99102.88
2022-09-26T21:54:20.737Z,99103.63
2022-09-26T21:57:21.080Z,99099.63
2022-09-26T22:00:18.240Z,99106.06
2022-09-26T22:03:14.887Z,99091.53
2022-09-26T22:06:12.295Z,99087.66
2022-09-26T22:09:09.328Z,99097.00
2022-09-26T22:12:07.125Z,99101.31
2022-09-26T22:15:04.448Z,99091.50
2022-09-26T22:18:02.018Z,99084.53
2022-09-26T22:20:58.961Z,99081.59
2022-09-26T22:23:56.288Z,99091.06
2022-09-26T22:26:54.324Z,99087.84
2022-09-26T22:29:52.223Z,99078.03
2022-09-26T22:32:49.147Z,99072.72
2022-09-26T22:35:49.842Z,99082.91
2022-09-26T22:38:47.736Z,99080.38
2022-09-26T22:41:45.127Z,99060.94
2022-09-26T22:44:42.210Z,99067.47
2022-09-26T22:47:39.387Z,99074.09
2022-09-26T22:50:37.686Z,99060.00
2022-09-26T22:53:36.801Z,99077.84
2022-09-26T22:56:34.221Z,99058.00
2022-09-26T22:59:30.953Z,99061.38
2022-09-26T23:02:28.449Z,99056.50
2022-09-26T23:05:25.840Z,99062.94
2022-09-26T23:08:22.713Z,99061.38
2022-09-26T23:11:20.412Z,99050.00
2022-09-26T23:14:18.008Z,99056.47
2022-09-26T23:17:15.221Z,99054.94
2022-09-26T23:20:13.121Z,99052.66
2022-09-26T23:23:10.588Z,99047.44
2022-09-26T23:26:08.304Z,99053.97
2022-09-26T23:29:06.071Z,99051.94
2022-09-26T23:32:02.885Z,99053.06
2022-09-26T23:35:00.521Z,99043.31
2022-09-26T23:37:58.623Z,99052.91
2022-09-26T23:40:56.344Z,99055.72
2022-09-26T23:43:54.327Z,99053.72
2022-09-26T23:46:51.004Z,99046.88
2022-09-26T23:49:47.881Z,99057.84
2022-09-26T23:52:45.332Z,99050.56
2022-09-26T23:55:42.079Z,99047.78
2022-09-26T23:58:39.117Z,99053.06
